Terminal Aerodrome Forecast
Issued by NWS

Home | Current Version | Previous Version | Text Only | Print | Product List | Glossary On
Versions: 1 2 3 4 5 6 7 8 9 10 11 12 13 14 15 16
000
FTUS43 KGRR 181700
TAFJXN
TAF
KJXN 181740Z 1818/1918 05012G19KT P6SM SCT200
     FM182300 08012KT P6SM BKN150
     FM191100 10013G22KT P6SM BKN100=

USA.gov is the U.S. government's official web portal to all federal, state and local government web resources and services.